Accueil
METAR-TAF:

METAR-TAF

Aéroports :

Balikesir, Turquie

latitude: 39-37N, longitude: 027-55E, altitude: 101 m

Observation

Le bulletin a été fait il y a 29 minutes, à 18:50 UTC
Vent calme
Température 8°C
Humidité 93%
Pression 1021 hPa
Visibilité: 4000 m
brume

METAR: LTBF 201850Z 00000KT 4000 BR NSC 08/07 Q1021 NOSIG

Heure: 22:19 (19:19 UTC)

Prévision

Le bulletin a été fait il y a 2 heures et 39 minutes, à 16:40 UTC
Prévision valable du 20 à 18 UTC au 21 à 03 UTC
Vent 2 kt de direction variable
Visibilité: 4000 m
brume

TAF: LTBF 201640Z 2018/2103 VRB02KT 4000 BR NSC

Observations et prévisions météorologiques de plus de 4000 aéroports (messages METAR et TAF).

Les stations disponibles sont représentées par des disques jaunes et rouges sur la carte.

Passer la souris dessus pour voir le nom de la station.

Cliquer dessus pour voir les observations et prévisions météorologiques.

Pour changer de carte: cliquez sur les boutons verts avec une croix noire pour zoomer, sur le bouton vert avec un tiret pour effectuer un zoom arrière, ou sur les flèches vertes pour les cartes adjacentes.


METAR-TAF: